createdAt,value
2018-08-10T00:00:49.157Z,0
2018-08-10T00:01:59.363Z,0
2018-08-10T00:03:09.490Z,0
2018-08-10T00:04:19.680Z,0
2018-08-10T00:05:29.868Z,0
2018-08-10T00:06:39.989Z,0
2018-08-10T00:07:50.153Z,0
2018-08-10T00:09:00.537Z,0
2018-08-10T00:10:10.671Z,0
2018-08-10T00:11:20.785Z,0
2018-08-10T00:12:30.950Z,0
2018-08-10T00:13:41.191Z,0
2018-08-10T00:14:51.441Z,0
2018-08-10T00:16:01.591Z,0
2018-08-10T00:17:11.767Z,0
2018-08-10T00:18:21.984Z,0
2018-08-10T00:19:32.237Z,0
2018-08-10T00:20:42.415Z,0
2018-08-10T00:21:52.635Z,0
2018-08-10T00:23:02.260Z,0
2018-08-10T00:24:12.396Z,0
2018-08-10T00:25:22.531Z,0
2018-08-10T00:26:32.654Z,0
2018-08-10T00:27:42.815Z,0
2018-08-10T00:28:53.112Z,0
2018-08-10T00:30:03.282Z,0
2018-08-10T00:31:13.420Z,0
2018-08-10T00:32:23.770Z,0
2018-08-10T00:33:33.920Z,0
2018-08-10T00:34:44.066Z,0
2018-08-10T00:35:54.259Z,0
2018-08-10T00:37:04.397Z,0
2018-08-10T00:38:14.548Z,0
2018-08-10T00:39:24.676Z,0
2018-08-10T00:40:35.788Z,0
2018-08-10T00:41:46.042Z,0
2018-08-10T00:42:55.918Z,0
2018-08-10T00:44:06.090Z,0
2018-08-10T00:45:16.222Z,0
2018-08-10T00:46:26.371Z,0
2018-08-10T00:47:36.562Z,0
2018-08-10T00:48:46.801Z,0
2018-08-10T00:49:57.013Z,0
2018-08-10T00:51:07.207Z,0
2018-08-10T00:52:17.175Z,0
2018-08-10T00:53:27.302Z,0
2018-08-10T00:54:37.189Z,0
2018-08-10T00:55:47.359Z,0
2018-08-10T00:56:57.635Z,0
2018-08-10T00:58:08.036Z,0
2018-08-10T00:59:18.172Z,0
2018-08-10T01:00:28.497Z,0
2018-08-10T01:01:38.734Z,0
2018-08-10T01:02:48.966Z,0
2018-08-10T01:03:59.168Z,0
2018-08-10T01:05:09.470Z,0
2018-08-10T01:06:19.268Z,0
2018-08-10T01:07:29.470Z,0
2018-08-10T01:08:39.674Z,0
2018-08-10T01:09:49.853Z,0
2018-08-10T01:11:00.073Z,0
2018-08-10T01:12:10.212Z,0
2018-08-10T01:13:20.496Z,0
2018-08-10T01:14:30.247Z,0
2018-08-10T01:15:40.586Z,0
2018-08-10T01:16:50.712Z,0
2018-08-10T01:18:00.875Z,0
2018-08-10T01:19:11.082Z,0
2018-08-10T01:20:21.027Z,0
2018-08-10T01:21:31.221Z,0
2018-08-10T01:22:41.112Z,0
2018-08-10T01:23:51.264Z,0
2018-08-10T01:25:01.387Z,0
2018-08-10T01:26:11.517Z,0
2018-08-10T01:27:21.671Z,0
2018-08-10T01:28:32.334Z,0
2018-08-10T01:29:42.634Z,0
2018-08-10T01:30:52.809Z,0
2018-08-10T01:32:02.979Z,0
2018-08-10T01:33:13.136Z,0
2018-08-10T01:34:23.281Z,0
2018-08-10T01:35:33.417Z,0
2018-08-10T01:36:43.536Z,0
2018-08-10T01:37:53.424Z,0
2018-08-10T01:39:03.543Z,0
2018-08-10T01:40:13.737Z,0
2018-08-10T01:41:23.936Z,0
2018-08-10T01:42:34.094Z,0
2018-08-10T01:43:43.953Z,0
2018-08-10T01:44:54.128Z,0
2018-08-10T01:46:04.322Z,0
2018-08-10T01:47:14.215Z,0
2018-08-10T01:48:25.394Z,0
2018-08-10T01:49:35.564Z,0
2018-08-10T01:50:45.780Z,0
2018-08-10T01:51:55.928Z,0
2018-08-10T01:53:06.099Z,0
2018-08-10T01:54:15.873Z,0
2018-08-10T01:55:26.082Z,0
2018-08-10T01:56:36.249Z,0
2018-08-10T01:57:46.450Z,0
2018-08-10T01:58:56.630Z,0
2018-08-10T02:00:06.856Z,0
2018-08-10T02:01:17.125Z,0
2018-08-10T02:02:27.295Z,0
2018-08-10T02:03:37.409Z,0
2018-08-10T02:04:47.310Z,0
2018-08-10T02:05:57.472Z,0
2018-08-10T02:07:07.916Z,0
2018-08-10T02:08:18.056Z,0
2018-08-10T02:09:28.244Z,0
2018-08-10T02:10:38.427Z,0
2018-08-10T02:11:48.709Z,0
2018-08-10T02:12:58.866Z,0
2018-08-10T02:14:09.109Z,0
2018-08-10T02:15:19.385Z,0
2018-08-10T02:16:29.706Z,0
2018-08-10T02:17:39.840Z,0
2018-08-10T02:18:50.042Z,0
2018-08-10T02:20:00.182Z,0
2018-08-10T02:21:10.415Z,0
2018-08-10T02:22:20.580Z,0
2018-08-10T02:23:30.848Z,0
2018-08-10T02:24:41.230Z,0
2018-08-10T02:25:51.463Z,0
2018-08-10T02:27:01.696Z,0
2018-08-10T02:28:11.912Z,0
2018-08-10T02:29:22.057Z,0
2018-08-10T02:30:32.252Z,0
2018-08-10T02:31:42.397Z,0
2018-08-10T02:32:52.815Z,0
2018-08-10T02:34:02.715Z,0
2018-08-10T02:35:12.867Z,0
2018-08-10T02:36:22.996Z,0
2018-08-10T02:37:32.801Z,0
2018-08-10T02:38:42.592Z,0
2018-08-10T02:39:52.755Z,0
2018-08-10T02:41:02.908Z,0
2018-08-10T02:42:13.135Z,0
2018-08-10T02:43:23.292Z,0
2018-08-10T02:44:33.415Z,0
2018-08-10T02:45:43.557Z,0
2018-08-10T02:46:53.488Z,0
2018-08-10T02:48:03.676Z,0
2018-08-10T02:49:13.965Z,0
2018-08-10T02:50:24.141Z,0
2018-08-10T02:51:34.333Z,0
2018-08-10T02:52:44.541Z,0
2018-08-10T02:53:54.727Z,0
2018-08-10T02:55:04.934Z,0
2018-08-10T02:56:14.806Z,0
2018-08-10T02:57:24.691Z,0
2018-08-10T02:58:34.815Z,0
2018-08-10T02:59:44.944Z,0
2018-08-10T03:00:55.066Z,0
2018-08-10T03:02:05.364Z,0
2018-08-10T03:03:15.630Z,0
2018-08-10T03:04:25.857Z,0
2018-08-10T03:05:36.221Z,0
2018-08-10T03:06:46.368Z,0
2018-08-10T03:07:56.521Z,0
2018-08-10T03:09:06.791Z,0
2018-08-10T03:10:16.966Z,0
2018-08-10T03:11:26.846Z,0
2018-08-10T03:12:37.000Z,0
2018-08-10T03:13:47.136Z,0
2018-08-10T03:14:57.294Z,0
2018-08-10T03:16:07.442Z,0
2018-08-10T03:17:17.588Z,0
2018-08-10T03:18:27.786Z,0
2018-08-10T03:19:37.930Z,0
2018-08-10T03:20:48.068Z,0
2018-08-10T03:21:58.320Z,0
2018-08-10T03:23:08.201Z,0
2018-08-10T03:24:18.352Z,0
2018-08-10T03:25:28.142Z,0
2018-08-10T03:26:38.311Z,0
2018-08-10T03:27:48.247Z,0
2018-08-10T03:28:58.484Z,0
2018-08-10T03:30:08.731Z,0
2018-08-10T03:31:18.872Z,0
2018-08-10T03:32:29.098Z,0
2018-08-10T03:33:39.354Z,0
2018-08-10T03:34:49.290Z,0
2018-08-10T03:35:59.502Z,0
2018-08-10T03:37:09.637Z,0
2018-08-10T03:38:19.799Z,0
2018-08-10T03:39:30.000Z,0
2018-08-10T03:40:40.235Z,0
2018-08-10T03:41:50.496Z,0
2018-08-10T03:43:00.697Z,0
2018-08-10T03:44:10.835Z,0
2018-08-10T03:45:21.038Z,0
2018-08-10T03:46:31.225Z,0
2018-08-10T03:47:41.455Z,5
2018-08-10T03:48:51.632Z,5
2018-08-10T03:50:02.149Z,5
2018-08-10T03:51:12.284Z,5
2018-08-10T03:52:22.455Z,5
2018-08-10T03:53:32.642Z,5
2018-08-10T03:54:42.837Z,5
2018-08-10T03:55:53.128Z,10
2018-08-10T03:57:03.009Z,10
2018-08-10T03:58:12.721Z,10
2018-08-10T03:59:22.853Z,10
2018-08-10T04:00:32.765Z,10
2018-08-10T04:01:42.630Z,10
2018-08-10T04:02:52.633Z,10
2018-08-10T04:04:02.780Z,15
2018-08-10T04:05:12.671Z,15
2018-08-10T04:06:22.815Z,20
2018-08-10T04:07:32.941Z,20
2018-08-10T04:08:43.067Z,20
2018-08-10T04:09:53.356Z,20
2018-08-10T04:11:04.591Z,20
2018-08-10T04:12:14.745Z,20
2018-08-10T04:13:24.664Z,15
2018-08-10T04:14:34.809Z,15
2018-08-10T04:15:44.966Z,20
2018-08-10T04:16:55.112Z,20
2018-08-10T04:18:05.304Z,20
2018-08-10T04:19:15.181Z,20
2018-08-10T04:20:25.354Z,25
2018-08-10T04:21:35.586Z,25
2018-08-10T04:22:45.843Z,20
2018-08-10T04:23:56.051Z,20
2018-08-10T04:25:06.224Z,20
2018-08-10T04:26:16.392Z,20
2018-08-10T04:27:26.584Z,15
2018-08-10T04:28:36.813Z,20
2018-08-10T04:29:46.885Z,20
2018-08-10T04:30:57.049Z,20
2018-08-10T04:32:07.204Z,25
2018-08-10T04:33:17.377Z,30
2018-08-10T04:34:27.559Z,30
2018-08-10T04:35:37.707Z,30
2018-08-10T04:36:47.510Z,30
2018-08-10T04:37:57.818Z,25
2018-08-10T04:39:08.022Z,25
2018-08-10T04:40:18.213Z,25
2018-08-10T04:41:28.342Z,25
2018-08-10T04:42:38.525Z,30
2018-08-10T04:43:48.697Z,30
2018-08-10T04:44:58.570Z,30
2018-08-10T04:46:08.440Z,25
2018-08-10T04:47:18.563Z,25
2018-08-10T04:48:28.797Z,20
2018-08-10T04:49:38.381Z,25
2018-08-10T04:50:48.740Z,25
2018-08-10T04:51:58.935Z,25
2018-08-10T04:53:09.074Z,30
2018-08-10T04:54:19.345Z,45
2018-08-10T04:55:29.867Z,50
2018-08-10T04:56:40.323Z,55
2018-08-10T04:57:50.189Z,60
2018-08-10T04:59:00.353Z,65
2018-08-10T05:00:10.527Z,50
2018-08-10T05:01:20.708Z,60
2018-08-10T05:02:30.865Z,60
2018-08-10T05:03:41.187Z,70
2018-08-10T05:04:51.014Z,65
2018-08-10T05:06:00.923Z,65
2018-08-10T05:07:11.037Z,65
2018-08-10T05:08:21.189Z,80
2018-08-10T05:09:31.320Z,85
2018-08-10T05:10:41.972Z,70
2018-08-10T05:11:51.883Z,50
2018-08-10T05:13:01.762Z,55
2018-08-10T05:14:11.907Z,60
2018-08-10T05:15:21.982Z,65
2018-08-10T05:16:32.202Z,65
2018-08-10T05:17:42.370Z,65
2018-08-10T05:18:52.242Z,65
2018-08-10T05:20:02.365Z,70
2018-08-10T05:21:12.546Z,85
2018-08-10T05:22:23.638Z,80
2018-08-10T05:23:33.489Z,75
2018-08-10T05:24:43.729Z,75
2018-08-10T05:25:54.137Z,75
2018-08-10T05:27:04.298Z,70
2018-08-10T05:28:14.431Z,55
2018-08-10T05:29:24.605Z,50
2018-08-10T05:30:34.395Z,50
2018-08-10T05:31:44.549Z,55
2018-08-10T05:32:54.763Z,55
2018-08-10T05:34:04.958Z,60
2018-08-10T05:35:15.333Z,75
2018-08-10T05:36:25.451Z,85
2018-08-10T05:37:35.635Z,75
2018-08-10T05:38:46.005Z,70
2018-08-10T05:39:56.374Z,65
2018-08-10T05:41:06.513Z,80
2018-08-10T05:42:16.676Z,80
2018-08-10T05:43:26.476Z,75
2018-08-10T05:44:36.630Z,85
2018-08-10T05:45:46.555Z,100
2018-08-10T05:46:57.338Z,90
2018-08-10T05:48:07.469Z,100
2018-08-10T05:49:17.750Z,85
2018-08-10T05:50:27.962Z,85
2018-08-10T05:51:38.105Z,85
2018-08-10T05:52:48.454Z,85
2018-08-10T05:53:57.995Z,80
2018-08-10T05:55:08.124Z,85
2018-08-10T05:56:19.256Z,80
2018-08-10T05:57:29.550Z,85
2018-08-10T05:58:39.706Z,90
2018-08-10T05:59:49.574Z,90
2018-08-10T06:00:59.816Z,105
2018-08-10T06:02:09.944Z,120
2018-08-10T06:03:20.330Z,95
2018-08-10T06:04:30.412Z,80
2018-08-10T06:05:40.562Z,60
2018-08-10T06:06:50.775Z,50
2018-08-10T06:08:01.146Z,55
2018-08-10T06:09:11.264Z,75
2018-08-10T06:10:21.205Z,95
2018-08-10T06:11:31.324Z,130
2018-08-10T06:12:41.458Z,135
2018-08-10T06:13:51.659Z,140
2018-08-10T06:15:03.258Z,140
2018-08-10T06:16:13.157Z,150
2018-08-10T06:17:23.279Z,160
2018-08-10T06:18:33.413Z,160
2018-08-10T06:19:44.208Z,160
2018-08-10T06:20:54.131Z,155
2018-08-10T06:22:04.002Z,170
2018-08-10T06:23:14.273Z,165
2018-08-10T06:24:24.565Z,145
2018-08-10T06:25:34.705Z,140
2018-08-10T06:26:44.620Z,140
2018-08-10T06:27:55.474Z,145
2018-08-10T06:29:05.459Z,145
2018-08-10T06:30:15.635Z,140
2018-08-10T06:31:25.482Z,140
2018-08-10T06:32:35.645Z,145
2018-08-10T06:33:46.033Z,150
2018-08-10T06:34:56.231Z,150
2018-08-10T06:36:06.108Z,145
2018-08-10T06:37:15.990Z,145
2018-08-10T06:38:26.123Z,150
2018-08-10T06:39:36.264Z,155
2018-08-10T06:40:46.209Z,145
2018-08-10T06:41:56.416Z,140
2018-08-10T06:43:06.748Z,140
2018-08-10T06:44:16.894Z,140
2018-08-10T06:45:27.941Z,145
2018-08-10T06:46:38.210Z,155
2018-08-10T06:47:48.444Z,155
2018-08-10T06:48:58.721Z,165
2018-08-10T06:50:08.947Z,165
2018-08-10T06:51:19.913Z,165
2018-08-10T06:52:30.082Z,175
2018-08-10T06:53:39.967Z,175
2018-08-10T06:54:51.246Z,175
2018-08-10T06:56:02.272Z,185
2018-08-10T06:57:12.731Z,195
2018-08-10T06:58:22.885Z,175
2018-08-10T06:59:33.110Z,180
2018-08-10T07:00:43.930Z,205
2018-08-10T07:01:54.149Z,210
2018-08-10T07:03:04.107Z,215
2018-08-10T07:04:14.278Z,220
2018-08-10T07:05:24.413Z,235
2018-08-10T07:06:34.359Z,245
2018-08-10T07:07:45.281Z,260
2018-08-10T07:08:55.504Z,315
2018-08-10T07:10:05.625Z,295
2018-08-10T07:11:15.859Z,310
2018-08-10T07:12:26.142Z,325
2018-08-10T07:13:37.007Z,290
2018-08-10T07:14:47.237Z,295
2018-08-10T07:15:57.009Z,375
2018-08-10T07:17:07.161Z,340
2018-08-10T07:18:17.290Z,320
2018-08-10T07:19:27.414Z,300
2018-08-10T07:20:37.560Z,310
2018-08-10T07:21:47.838Z,300
2018-08-10T07:22:58.079Z,305
2018-08-10T07:24:08.285Z,300
2018-08-10T07:25:18.183Z,305
2018-08-10T07:26:28.306Z,300
2018-08-10T07:27:38.432Z,300
2018-08-10T07:28:48.691Z,305
2018-08-10T07:29:58.946Z,300
2018-08-10T07:31:09.083Z,280
2018-08-10T07:32:19.324Z,290
2018-08-10T07:33:29.702Z,295
2018-08-10T07:34:39.837Z,300
2018-08-10T07:35:49.969Z,305
2018-08-10T07:37:00.166Z,300
2018-08-10T07:38:10.283Z,300
2018-08-10T07:39:20.416Z,290
2018-08-10T07:40:30.816Z,315
2018-08-10T07:41:41.114Z,325
2018-08-10T07:42:51.269Z,340
2018-08-10T07:44:01.194Z,350
2018-08-10T07:45:11.323Z,375
2018-08-10T07:46:21.584Z,390
2018-08-10T07:47:31.734Z,395
2018-08-10T07:48:41.976Z,435
2018-08-10T07:49:52.233Z,390
2018-08-10T07:51:02.048Z,395
2018-08-10T07:52:12.392Z,405
2018-08-10T07:53:22.531Z,375
2018-08-10T07:54:32.766Z,400
2018-08-10T07:55:42.926Z,405
2018-08-10T07:56:53.089Z,400
2018-08-10T07:58:02.987Z,400
2018-08-10T07:59:13.723Z,385
2018-08-10T08:00:24.871Z,375
2018-08-10T08:01:35.136Z,390
2018-08-10T08:02:45.273Z,335
2018-08-10T08:03:55.453Z,320
2018-08-10T08:05:05.623Z,285
2018-08-10T08:06:16.088Z,295
2018-08-10T08:07:26.061Z,320
2018-08-10T08:08:36.221Z,330
2018-08-10T08:09:46.144Z,320
2018-08-10T08:10:56.044Z,315
2018-08-10T08:12:06.182Z,310
2018-08-10T08:13:16.325Z,310
2018-08-10T08:14:26.454Z,290
2018-08-10T08:15:36.352Z,290
2018-08-10T08:16:46.480Z,290
2018-08-10T08:17:56.459Z,300
2018-08-10T08:19:06.875Z,315
2018-08-10T08:20:16.772Z,315
2018-08-10T08:21:26.903Z,315
2018-08-10T08:22:37.748Z,330
2018-08-10T08:23:47.895Z,365
2018-08-10T08:24:58.047Z,325
2018-08-10T08:26:07.688Z,365
2018-08-10T08:27:18.173Z,380
2018-08-10T08:28:28.343Z,380
2018-08-10T08:29:39.469Z,400
2018-08-10T08:30:49.585Z,425
2018-08-10T08:31:59.605Z,400
2018-08-10T08:33:10.082Z,390
2018-08-10T08:34:19.947Z,440
2018-08-10T08:35:31.057Z,490
2018-08-10T08:36:41.181Z,470
2018-08-10T08:37:51.090Z,570
2018-08-10T08:39:01.241Z,580
2018-08-10T08:40:11.366Z,385
2018-08-10T08:41:21.734Z,355
2018-08-10T08:42:31.897Z,260
2018-08-10T08:43:42.055Z,295
2018-08-10T08:44:52.289Z,850
2018-08-10T08:46:04.190Z,1395
2018-08-10T08:47:14.127Z,1385
2018-08-10T08:48:23.927Z,1515
2018-08-10T08:49:34.093Z,1685
2018-08-10T08:50:44.234Z,1605
2018-08-10T08:51:54.537Z,1625
2018-08-10T08:53:04.767Z,2055
2018-08-10T08:54:15.358Z,540
2018-08-10T08:55:25.589Z,400
2018-08-10T08:56:35.513Z,275
2018-08-10T08:57:45.712Z,655
2018-08-10T08:58:56.828Z,2355
2018-08-10T09:00:06.735Z,1950
2018-08-10T09:01:18.125Z,300
2018-08-10T09:02:28.306Z,335
2018-08-10T09:03:38.451Z,385
2018-08-10T09:04:48.595Z,475
2018-08-10T09:05:58.760Z,530
2018-08-10T09:07:08.891Z,310
2018-08-10T09:08:19.039Z,265
2018-08-10T09:09:28.965Z,300
2018-08-10T09:10:38.966Z,865
2018-08-10T09:11:49.118Z,1940
2018-08-10T09:12:59.013Z,1765
2018-08-10T09:14:09.204Z,1650
2018-08-10T09:15:19.363Z,1725
2018-08-10T09:16:29.572Z,1300
2018-08-10T09:17:40.369Z,2035
2018-08-10T09:18:50.557Z,990
2018-08-10T09:20:00.725Z,2120
2018-08-10T09:21:10.974Z,1285
2018-08-10T09:22:21.142Z,665
2018-08-10T09:23:31.713Z,480
2018-08-10T09:24:41.640Z,435
2018-08-10T09:25:51.568Z,2225
2018-08-10T09:27:02.084Z,2135
2018-08-10T09:28:12.308Z,1015
2018-08-10T09:29:22.737Z,2115
2018-08-10T09:30:32.885Z,2190
2018-08-10T09:31:43.048Z,505
2018-08-10T09:32:52.942Z,2145
2018-08-10T09:34:02.854Z,480
2018-08-10T09:35:12.898Z,515
2018-08-10T09:36:23.044Z,535
2018-08-10T09:37:33.214Z,480
2018-08-10T09:38:43.890Z,450
2018-08-10T09:39:53.262Z,660
2018-08-10T09:41:03.425Z,2230
2018-08-10T09:42:13.979Z,2205
2018-08-10T09:43:24.247Z,435
2018-08-10T09:44:34.461Z,470
2018-08-10T09:45:44.617Z,2440
2018-08-10T09:46:54.900Z,2045
2018-08-10T09:48:05.056Z,1500
2018-08-10T09:49:15.332Z,585
2018-08-10T09:50:25.529Z,2375
2018-08-10T09:51:35.690Z,2280
2018-08-10T09:52:45.880Z,2255
2018-08-10T09:53:56.317Z,2270
2018-08-10T09:55:06.482Z,2385
2018-08-10T09:56:16.368Z,2445
2018-08-10T09:57:26.547Z,460
2018-08-10T09:58:36.797Z,2330
2018-08-10T09:59:47.446Z,2520
2018-08-10T10:00:57.618Z,2290
2018-08-10T10:02:07.281Z,665
2018-08-10T10:03:17.496Z,495
2018-08-10T10:04:27.651Z,2460
2018-08-10T10:05:37.960Z,2535
2018-08-10T10:06:48.248Z,885
2018-08-10T10:07:58.516Z,535
2018-08-10T10:09:08.850Z,530
2018-08-10T10:10:19.126Z,285
2018-08-10T10:11:29.297Z,2470
2018-08-10T10:12:38.888Z,2395
2018-08-10T10:13:49.087Z,2450
2018-08-10T10:14:59.338Z,2465
2018-08-10T10:16:09.489Z,2455
2018-08-10T10:17:19.740Z,2520
2018-08-10T10:18:30.900Z,2515
2018-08-10T10:19:41.122Z,2550
2018-08-10T10:20:51.348Z,2670
2018-08-10T10:22:01.579Z,2660
2018-08-10T10:23:11.902Z,2635
2018-08-10T10:24:22.124Z,2655
2018-08-10T10:25:32.059Z,625
2018-08-10T10:26:42.359Z,2075
2018-08-10T10:27:52.571Z,2720
2018-08-10T10:29:02.882Z,2340
2018-08-10T10:30:13.075Z,2715
2018-08-10T10:31:23.326Z,2730
2018-08-10T10:32:33.693Z,2715
2018-08-10T10:33:43.880Z,2710
2018-08-10T10:34:54.101Z,2735
2018-08-10T10:36:04.290Z,2795
2018-08-10T10:37:14.453Z,2800
2018-08-10T10:38:24.665Z,2885
2018-08-10T10:39:34.896Z,2940
2018-08-10T10:40:44.801Z,2930
2018-08-10T10:41:54.984Z,2915
2018-08-10T10:43:05.201Z,2860
2018-08-10T10:44:15.389Z,2830
2018-08-10T10:45:25.548Z,2820
2018-08-10T10:46:35.723Z,2830
2018-08-10T10:47:45.919Z,2850
2018-08-10T10:49:00.392Z,2935
2018-08-10T10:50:10.564Z,2945
2018-08-10T10:51:20.410Z,2985
2018-08-10T10:52:30.486Z,3070
2018-08-10T10:53:40.703Z,3080
2018-08-10T10:54:50.712Z,3070
2018-08-10T10:56:00.892Z,2980
2018-08-10T10:57:11.360Z,2940
2018-08-10T10:58:21.543Z,2865
2018-08-10T10:59:31.897Z,1385
2018-08-10T11:00:42.068Z,2800
2018-08-10T11:01:51.993Z,2865
2018-08-10T11:03:02.166Z,3010
2018-08-10T11:04:12.392Z,610
2018-08-10T11:05:22.567Z,2950
2018-08-10T11:06:32.980Z,2950
2018-08-10T11:07:43.240Z,2955
2018-08-10T11:08:53.475Z,2935
2018-08-10T11:10:03.639Z,2940
2018-08-10T11:11:13.868Z,2915
2018-08-10T11:12:24.042Z,2890
2018-08-10T11:13:34.281Z,2850
2018-08-10T11:14:44.174Z,2815
2018-08-10T11:15:54.338Z,2855
2018-08-10T11:17:04.507Z,2925
2018-08-10T11:18:15.192Z,1095
2018-08-10T11:19:25.367Z,2860
2018-08-10T11:20:35.635Z,2800
2018-08-10T11:21:45.793Z,1905
2018-08-10T11:22:55.613Z,2915
2018-08-10T11:24:06.102Z,3045
2018-08-10T11:25:16.824Z,3080
2018-08-10T11:26:27.204Z,1035
2018-08-10T11:27:37.370Z,570
2018-08-10T11:28:47.826Z,555
2018-08-10T11:29:58.015Z,3010
2018-08-10T11:31:08.185Z,2985
2018-08-10T11:32:18.556Z,2915
2018-08-10T11:33:28.478Z,2900
2018-08-10T11:34:38.549Z,450
2018-08-10T11:35:48.709Z,435
2018-08-10T11:36:58.932Z,1755
2018-08-10T11:38:09.108Z,2890
2018-08-10T11:39:18.954Z,2840
2018-08-10T11:40:29.115Z,2805
2018-08-10T11:41:39.608Z,2735
2018-08-10T11:42:49.951Z,2805
2018-08-10T11:44:00.157Z,2870
2018-08-10T11:45:10.074Z,2195
2018-08-10T11:46:20.243Z,795
2018-08-10T11:47:29.913Z,2865
2018-08-10T11:48:40.081Z,2830
2018-08-10T11:49:50.221Z,2830
2018-08-10T11:51:00.121Z,2835
2018-08-10T11:52:10.260Z,2825
2018-08-10T11:53:20.462Z,2825
2018-08-10T11:54:30.601Z,2870
2018-08-10T11:55:40.877Z,2890
2018-08-10T11:56:51.041Z,2890
2018-08-10T11:58:03.780Z,2980
2018-08-10T11:59:13.936Z,3085
2018-08-10T12:00:24.819Z,3130
2018-08-10T12:01:35.038Z,3110
2018-08-10T12:02:45.220Z,3090
2018-08-10T12:03:55.414Z,3025
2018-08-10T12:05:05.582Z,1415
2018-08-10T12:06:16.263Z,595
2018-08-10T12:07:26.438Z,660
2018-08-10T12:08:36.843Z,3065
2018-08-10T12:09:46.708Z,3070
2018-08-10T12:10:56.879Z,2935
2018-08-10T12:12:08.010Z,2915
2018-08-10T12:13:18.180Z,1790
2018-08-10T12:14:28.327Z,2870
2018-08-10T12:15:38.489Z,2835
2018-08-10T12:16:48.819Z,2760
2018-08-10T12:17:58.995Z,2670
2018-08-10T12:19:09.472Z,2630
2018-08-10T12:20:19.477Z,2620
2018-08-10T12:21:29.402Z,2685
2018-08-10T12:22:39.787Z,505
2018-08-10T12:23:50.177Z,435
2018-08-10T12:25:00.447Z,440
2018-08-10T12:26:10.621Z,1060
2018-08-10T12:27:20.416Z,2625
2018-08-10T12:28:30.580Z,2585
2018-08-10T12:29:40.761Z,2600
2018-08-10T12:30:51.556Z,2645
2018-08-10T12:32:01.737Z,2660
2018-08-10T12:33:11.930Z,2665
2018-08-10T12:34:21.724Z,2660
2018-08-10T12:35:31.882Z,2680
2018-08-10T12:36:42.063Z,2790
2018-08-10T12:37:52.235Z,2740
2018-08-10T12:39:02.201Z,2765
2018-08-10T12:40:12.363Z,2620
2018-08-10T12:41:22.546Z,2585
2018-08-10T12:42:32.716Z,2145
2018-08-10T12:43:42.869Z,2625
2018-08-10T12:44:53.759Z,2620
2018-08-10T12:46:03.901Z,2650
2018-08-10T12:47:13.791Z,2560
2018-08-10T12:48:23.984Z,2540
2018-08-10T12:49:33.893Z,490
2018-08-10T12:50:44.335Z,2380
2018-08-10T12:51:54.554Z,835
2018-08-10T12:53:04.751Z,530
2018-08-10T12:54:14.931Z,450
2018-08-10T12:55:25.246Z,470
2018-08-10T12:56:35.257Z,585
2018-08-10T12:57:45.546Z,655
2018-08-10T12:58:55.776Z,1885
2018-08-10T13:00:05.976Z,1235
2018-08-10T13:01:16.165Z,620
2018-08-10T13:02:26.410Z,2560
2018-08-10T13:03:36.561Z,2510
2018-08-10T13:04:46.865Z,2555
2018-08-10T13:05:57.078Z,2510
2018-08-10T13:07:08.366Z,2495
2018-08-10T13:08:18.538Z,2515
2018-08-10T13:09:28.722Z,2515
2018-08-10T13:10:38.936Z,2610
2018-08-10T13:11:49.300Z,2640
2018-08-10T13:12:59.527Z,2560
2018-08-10T13:14:09.433Z,460
2018-08-10T13:15:19.852Z,455
2018-08-10T13:16:30.018Z,380
2018-08-10T13:17:40.193Z,330
2018-08-10T13:18:50.457Z,370
2018-08-10T13:20:00.659Z,415
2018-08-10T13:21:10.899Z,400
2018-08-10T13:22:21.215Z,1035
2018-08-10T13:23:31.154Z,435
2018-08-10T13:24:41.356Z,355
2018-08-10T13:25:51.619Z,345
2018-08-10T13:27:01.460Z,460
2018-08-10T13:28:11.710Z,470
2018-08-10T13:29:21.941Z,430
2018-08-10T13:30:32.194Z,455
2018-08-10T13:31:42.467Z,505
2018-08-10T13:32:52.696Z,545
2018-08-10T13:34:02.886Z,540
2018-08-10T13:35:12.801Z,875
2018-08-10T13:36:22.687Z,610
2018-08-10T13:37:32.840Z,545
2018-08-10T13:38:43.009Z,520
2018-08-10T13:39:53.201Z,585
2018-08-10T13:41:03.535Z,2300
2018-08-10T13:42:14.303Z,2295
2018-08-10T13:43:24.211Z,2250
2018-08-10T13:44:34.529Z,2270
2018-08-10T13:45:44.744Z,2295
2018-08-10T13:46:55.158Z,2265
2018-08-10T13:48:05.344Z,2190
2018-08-10T13:49:16.037Z,1990
2018-08-10T13:50:26.195Z,1910
2018-08-10T13:51:36.405Z,2085
2018-08-10T13:52:46.305Z,2045
2018-08-10T13:53:58.955Z,2040
2018-08-10T13:55:09.192Z,1975
2018-08-10T13:56:19.430Z,2015
2018-08-10T13:57:29.641Z,480
2018-08-10T13:58:40.195Z,465
2018-08-10T13:59:50.437Z,340
2018-08-10T14:01:00.604Z,295
2018-08-10T14:02:10.762Z,310
2018-08-10T14:03:21.177Z,400
2018-08-10T14:04:30.816Z,1740
2018-08-10T14:05:40.864Z,1585
2018-08-10T14:06:51.050Z,1960
2018-08-10T14:08:01.228Z,425
2018-08-10T14:09:11.385Z,350
2018-08-10T14:10:21.569Z,335
2018-08-10T14:11:31.840Z,335
2018-08-10T14:12:42.048Z,420
2018-08-10T14:13:52.293Z,395
2018-08-10T14:15:02.566Z,420
2018-08-10T14:16:12.946Z,395
2018-08-10T14:17:23.161Z,415
2018-08-10T14:18:34.233Z,430
2018-08-10T14:19:44.433Z,335
2018-08-10T14:20:54.617Z,315
2018-08-10T14:22:04.815Z,285
2018-08-10T14:23:15.050Z,260
2018-08-10T14:24:25.316Z,260
2018-08-10T14:25:35.459Z,325
2018-08-10T14:26:46.706Z,300
2018-08-10T14:27:57.383Z,280
2018-08-10T14:29:07.577Z,270
2018-08-10T14:30:17.523Z,235
2018-08-10T14:31:27.702Z,210
2018-08-10T14:32:37.912Z,190
2018-08-10T14:33:48.144Z,180
2018-08-10T14:34:58.388Z,185
2018-08-10T14:36:08.564Z,180
2018-08-10T14:37:18.721Z,160
2018-08-10T14:38:28.912Z,150
2018-08-10T14:39:39.093Z,160
2018-08-10T14:40:49.601Z,260
2018-08-10T14:41:59.780Z,215
2018-08-10T14:43:09.942Z,205
2018-08-10T14:44:20.197Z,255
2018-08-10T14:45:30.362Z,335
2018-08-10T14:46:40.790Z,290
2018-08-10T14:47:51.917Z,285
2018-08-10T14:49:02.164Z,275
2018-08-10T14:50:12.362Z,275
2018-08-10T14:51:22.480Z,285
2018-08-10T14:52:32.653Z,290
2018-08-10T14:53:43.312Z,315
2018-08-10T14:54:53.647Z,340
2018-08-10T14:56:03.919Z,355
2018-08-10T14:57:14.098Z,365
2018-08-10T14:58:24.250Z,375
2018-08-10T14:59:34.424Z,1215
2018-08-10T15:00:44.992Z,360
2018-08-10T15:01:55.400Z,280
2018-08-10T15:03:05.552Z,270
2018-08-10T15:04:15.723Z,345
2018-08-10T15:05:25.902Z,485
2018-08-10T15:06:36.416Z,1105
2018-08-10T15:07:46.652Z,1395
2018-08-10T15:08:56.830Z,1180
2018-08-10T15:10:06.975Z,1105
2018-08-10T15:11:17.146Z,1305
2018-08-10T15:12:29.291Z,330
2018-08-10T15:13:39.570Z,285
2018-08-10T15:14:49.346Z,295
2018-08-10T15:15:59.553Z,1350
2018-08-10T15:17:09.534Z,1380
2018-08-10T15:18:19.754Z,1385
2018-08-10T15:19:29.618Z,1405
2018-08-10T15:20:39.812Z,1455
2018-08-10T15:21:49.785Z,1455
2018-08-10T15:22:59.979Z,1405
2018-08-10T15:24:10.141Z,270
2018-08-10T15:25:20.376Z,285
2018-08-10T15:26:30.568Z,1045
2018-08-10T15:27:40.987Z,1065
2018-08-10T15:28:51.148Z,1160
2018-08-10T15:30:01.353Z,1160
2018-08-10T15:31:11.551Z,1160
2018-08-10T15:32:21.739Z,1145
2018-08-10T15:33:31.943Z,1095
2018-08-10T15:34:42.199Z,345
2018-08-10T15:35:52.148Z,820
2018-08-10T15:37:02.296Z,490
2018-08-10T15:38:12.586Z,375
2018-08-10T15:39:22.775Z,360
2018-08-10T15:40:32.731Z,360
2018-08-10T15:41:42.927Z,375
2018-08-10T15:42:53.121Z,375
2018-08-10T15:44:03.098Z,375
2018-08-10T15:45:12.907Z,375
2018-08-10T15:46:23.071Z,355
2018-08-10T15:47:33.527Z,345
2018-08-10T15:48:43.759Z,270
2018-08-10T15:49:53.896Z,245
2018-08-10T15:51:04.171Z,215
2018-08-10T15:52:14.429Z,205
2018-08-10T15:53:24.634Z,200
2018-08-10T15:54:34.933Z,200
2018-08-10T15:55:45.167Z,215
2018-08-10T15:56:55.368Z,270
2018-08-10T15:58:06.602Z,280
2018-08-10T15:59:16.823Z,290
2018-08-10T16:00:27.053Z,300
2018-08-10T16:01:37.213Z,300
2018-08-10T16:02:47.527Z,295
2018-08-10T16:03:57.776Z,295
2018-08-10T16:05:08.031Z,285
2018-08-10T16:06:18.196Z,215
2018-08-10T16:07:28.383Z,205
2018-08-10T16:08:39.079Z,185
2018-08-10T16:09:49.328Z,205
2018-08-10T16:10:59.487Z,145
2018-08-10T16:12:09.631Z,130
2018-08-10T16:13:19.879Z,135
2018-08-10T16:14:30.200Z,135
2018-08-10T16:15:40.370Z,135
2018-08-10T16:16:50.703Z,165
2018-08-10T16:18:00.947Z,170
2018-08-10T16:19:11.159Z,155